Time;durP1;ratioP1;P1;durP2;ratioP2;P2;SDS_P1;SDS_P2;PMS_P1;PMS_P2;Temp;Humidity;BMP_temperature;BMP_pressure;BME280_temperature;BME280_humidity;BME280_pressure;Samples;Min_cycle;Max_cycle;Signal;HPM_P1;HPM_P2
2023/08/02 00:01:34;;;;;;;;;;;;;;;17.43;76.59;99699.22;4170566;28;20359;-69
2023/08/02 00:03:35;;;;;;;;;;;;;;;17.40;76.44;99700.53;4205680;28;20470;-69
2023/08/02 00:05:39;;;;;;;;;;;;;;;17.39;76.52;99703.50;4202837;28;19925;-69
2023/08/02 00:07:44;;;;;;;;;;;;;;;17.36;76.50;99690.34;4205282;28;20389;-69
2023/08/02 00:09:48;;;;;;;;;;;;;;;17.33;76.62;99693.59;4204370;28;20015;-69
2023/08/02 00:11:52;;;;;;;;;;;;;;;17.32;76.74;99698.22;4205430;28;20023;-69
2023/08/02 00:13:56;;;;;;;;;;;;;;;17.29;77.07;99695.97;4205183;28;19932;-69
2023/08/02 00:16:00;;;;;;;;;;;;;;;17.31;76.89;99703.94;4205623;28;20019;-69
2023/08/02 00:18:01;;;;;;;;;;;;;;;17.29;76.92;99696.81;4204421;28;20015;-69
2023/08/02 00:20:04;;;;;;;;;;;;;;;17.30;76.83;99700.34;4205604;28;20336;-69
2023/08/02 00:22:06;;;;;;;;;;;;;;;17.30;76.65;99703.06;4204822;28;19997;-69
2023/08/02 00:24:13;;;;;;;;;;;;;;;17.27;76.59;99704.41;4203874;28;19975;-69
2023/08/02 00:26:20;;;;;;;;;;;;;;;17.25;76.72;99703.00;4185790;28;20022;-69
2023/08/02 00:28:28;;;;;;;;;;;;;;;17.22;76.76;99701.56;4204828;28;20032;-69
2023/08/02 00:30:43;;;;;;;;;;;;;;;17.22;77.15;99700.75;4202983;28;20396;-69
2023/08/02 00:38:52;;;;;;;;;;;;;;;17.19;77.28;99712.16;4204362;28;20011;-68
2023/08/02 00:40:57;;;;;;;;;;;;;;;17.14;77.01;99712.09;4205157;28;20014;-69
2023/08/02 00:42:59;;;;;;;;;;;;;;;17.11;77.41;99708.78;4170426;28;20447;-69
2023/08/02 00:45:01;;;;;;;;;;;;;;;17.11;77.41;99718.84;4204566;28;20019;-69
2023/08/02 00:47:04;;;;;;;;;;;;;;;17.09;77.54;99712.81;4186100;28;20024;-69
2023/08/02 00:49:09;;;;;;;;;;;;;;;17.07;77.68;99714.97;4169907;28;20024;-69
2023/08/02 00:51:15;;;;;;;;;;;;;;;17.03;77.61;99713.78;4170128;28;20529;-69
2023/08/02 00:53:18;;;;;;;;;;;;;;;17.01;77.91;99719.50;4202869;28;20019;-69
2023/08/02 00:55:20;;;;;;;;;;;;;;;16.99;78.01;99718.06;4204510;28;20022;-69
2023/08/02 00:57:22;;;;;;;;;;;;;;;16.99;77.90;99718.91;4204821;28;19936;-69
2023/08/02 00:59:23;;;;;;;;;;;;;;;16.99;78.07;99726.25;4170445;28;20004;-69
2023/08/02 01:01:25;;;;;;;;;;;;;;;17.00;77.91;99715.09;4204874;28;19929;-69
2023/08/02 01:03:28;;;;;;;;;;;;;;;17.00;77.98;99717.00;4185788;28;20004;-69
2023/08/02 01:05:31;;;;;;;;;;;;;;;17.01;77.91;99715.94;4204824;28;20003;-69
2023/08/02 01:07:40;;;;;;;;;;;;;;;17.00;77.91;99717.00;4202561;28;20031;-69
2023/08/02 01:09:49;;;;;;;;;;;;;;;16.99;78.02;99718.06;4203541;28;20010;-69
2023/08/02 01:11:57;;;;;;;;;;;;;;;16.95;78.08;99719.66;4203933;28;20028;-69
2023/08/02 01:13:59;;;;;;;;;;;;;;;16.93;78.32;99720.72;4203835;28;20018;-69
2023/08/02 01:16:05;;;;;;;;;;;;;;;16.92;78.54;99715.50;4169208;28;20847;-69
2023/08/02 01:18:08;;;;;;;;;;;;;;;16.94;78.46;99721.53;4204565;28;19981;-69
2023/08/02 01:20:11;;;;;;;;;;;;;;;16.92;78.65;99718.22;4203418;28;20015;-69
2023/08/02 01:22:14;;;;;;;;;;;;;;;16.90;78.57;99720.38;4203942;28;20023;-69
2023/08/02 01:24:16;;;;;;;;;;;;;;;16.88;78.58;99715.19;4203590;28;20616;-69
2023/08/02 01:26:21;;;;;;;;;;;;;;;16.85;78.92;99726.53;4204060;28;20384;-69
2023/08/02 01:28:27;;;;;;;;;;;;;;;16.84;79.16;99721.31;4202868;28;20018;-69
2023/08/02 01:30:30;;;;;;;;;;;;;;;16.83;79.06;99719.66;4201699;28;20019;-69
2023/08/02 01:32:32;;;;;;;;;;;;;;;16.83;79.05;99717.75;4186293;28;20485;-69
2023/08/02 01:34:38;;;;;;;;;;;;;;;16.83;78.86;99722.38;4204165;28;20027;-69
2023/08/02 01:36:41;;;;;;;;;;;;;;;16.82;79.07;99723.44;4186772;28;20481;-69
2023/08/02 01:38:43;;;;;;;;;;;;;;;16.81;79.09;99716.34;4203220;28;20435;-69
2023/08/02 01:40:45;;;;;;;;;;;;;;;16.80;79.19;99720.97;4202946;28;20011;-69
2023/08/02 01:42:52;;;;;;;;;;;;;;;16.80;79.13;99715.50;4203360;28;20019;-69
2023/08/02 01:44:59;;;;;;;;;;;;;;;16.80;79.20;99714.69;4202616;28;20023;-69
2023/08/02 01:47:01;;;;;;;;;;;;;;;16.80;79.04;99711.97;4184696;28;20031;-69
2023/08/02 01:49:03;;;;;;;;;;;;;;;16.78;79.09;99712.22;4202573;28;20034;-69
2023/08/02 01:51:06;;;;;;;;;;;;;;;16.78;79.11;99722.28;4203127;28;20442;-69
2023/08/02 01:53:09;;;;;;;;;;;;;;;16.78;78.96;99720.38;4185824;28;20023;-69
2023/08/02 01:55:11;;;;;;;;;;;;;;;16.76;79.09;99714.34;4204169;28;20051;-69
2023/08/02 01:57:13;;;;;;;;;;;;;;;16.74;79.08;99708.31;4204099;28;20007;-69
2023/08/02 01:59:15;;;;;;;;;;;;;;;16.74;79.03;99706.41;4201939;28;19981;-69
2023/08/02 02:01:17;;;;;;;;;;;;;;;16.75;78.91;99715.41;4184590;28;20015;-69
2023/08/02 02:03:20;;;;;;;;;;;;;;;16.73;79.06;99701.22;4168788;28;20383;-69
2023/08/02 02:05:25;;;;;;;;;;;;;;;16.76;78.90;99714.34;4203733;28;20015;-69
2023/08/02 02:07:27;;;;;;;;;;;;;;;16.75;78.98;99715.41;4203343;28;20039;-69
2023/08/02 02:09:31;;;;;;;;;;;;;;;16.74;79.24;99711.06;4202730;28;20023;-69
2023/08/02 02:11:33;;;;;;;;;;;;;;;16.72;79.19;99713.19;4184307;28;20042;-69
2023/08/02 02:13:36;;;;;;;;;;;;;;;16.71;79.19;99719.72;4202674;28;20015;-69
2023/08/02 02:15:41;;;;;;;;;;;;;;;16.70;79.33;99718.88;4184789;28;20350;-69
2023/08/02 02:17:44;;;;;;;;;;;;;;;16.72;79.15;99721.34;4185875;28;20015;-69
2023/08/02 02:19:49;;;;;;;;;;;;;;;16.70;79.18;99716.13;4202226;28;19935;-69
2023/08/02 02:21:52;;;;;;;;;;;;;;;16.68;79.42;99721.03;4203520;28;20019;-69
2023/08/02 02:23:54;;;;;;;;;;;;;;;16.68;79.33;99715.56;4203054;28;20358;-69
2023/08/02 02:25:58;;;;;;;;;;;;;;;16.66;79.53;99715.00;4183636;28;20027;-69
2023/08/02 02:28:00;;;;;;;;;;;;;;;16.69;79.30;99719.97;4183149;28;20011;-69
2023/08/02 02:30:05;;;;;;;;;;;;;;;16.67;79.51;99713.09;4202737;28;20019;-69
2023/08/02 02:32:08;;;;;;;;;;;;;;;16.68;79.41;99712.03;4202911;28;20940;-69
2023/08/02 02:34:11;;;;;;;;;;;;;;;16.67;79.86;99711.19;4203065;28;20011;-69
2023/08/02 02:36:13;;;;;;;;;;;;;;;16.66;79.70;99711.41;4203346;28;20003;-69
2023/08/02 02:38:18;;;;;;;;;;;;;;;16.67;79.62;99715.81;4184946;28;20491;-69
2023/08/02 02:40:20;;;;;;;;;;;;;;;16.66;79.66;99704.09;4184763;28;20866;-69
2023/08/02 02:42:23;;;;;;;;;;;;;;;16.66;79.63;99709.53;4183595;28;20019;-69
2023/08/02 02:44:26;;;;;;;;;;;;;;;16.65;79.75;99712.50;4202576;28;20010;-69
2023/08/02 02:46:28;;;;;;;;;;;;;;;16.65;79.71;99707.06;4185561;28;20023;-69
2023/08/02 02:48:30;;;;;;;;;;;;;;;16.65;79.70;99707.06;4184546;28;20012;-69
2023/08/02 02:50:32;;;;;;;;;;;;;;;16.65;79.74;99702.41;4202706;28;20446;-69
2023/08/02 02:52:34;;;;;;;;;;;;;;;16.62;80.43;99711.09;4185382;28;20358;-69
2023/08/02 02:54:39;;;;;;;;;;;;;;;16.63;80.29;99709.19;4203719;28;20478;-69
2023/08/02 02:56:45;;;;;;;;;;;;;;;16.62;80.40;99700.19;4203390;28;20032;-69
2023/08/02 02:58:48;;;;;;;;;;;;;;;16.60;80.25;99699.59;4203273;28;20011;-69
2023/08/02 03:00:50;;;;;;;;;;;;;;;16.58;80.65;99701.72;4185451;28;20040;-69
2023/08/02 03:02:52;;;;;;;;;;;;;;;16.58;80.41;99699.00;4202995;28;20489;-69
2023/08/02 03:04:55;;;;;;;;;;;;;;;16.59;80.22;99703.38;4203170;28;20032;-69
2023/08/02 03:07:00;;;;;;;;;;;;;;;16.57;80.43;99708.25;4202564;28;20430;-69
2023/08/02 03:09:03;;;;;;;;;;;;;;;16.56;80.35;99715.59;4203821;28;20364;-69
2023/08/02 03:11:06;;;;;;;;;;;;;;;16.55;80.33;99715.84;4202581;28;20354;-69
2023/08/02 03:13:08;;;;;;;;;;;;;;;16.56;80.24;99715.59;4202946;28;20015;-69
2023/08/02 03:15:11;;;;;;;;;;;;;;;16.55;80.26;99705.78;4202678;28;20015;-69
2023/08/02 03:17:17;;;;;;;;;;;;;;;16.55;80.34;99705.78;4203447;28;20019;-69
2023/08/02 03:19:21;;;;;;;;;;;;;;;16.53;80.31;99707.91;4202195;28;20011;-69
2023/08/02 03:21:40;;;;;;;;;;;;;;;16.53;80.13;99710.63;4203325;28;19974;-69
2023/08/02 03:23:45;;;;;;;;;;;;;;;16.53;80.24;99705.16;4203858;28;20027;-69
2023/08/02 03:25:47;;;;;;;;;;;;;;;16.54;80.50;99719.66;4184691;28;20036;-69
2023/08/02 03:27:49;;;;;;;;;;;;;;;16.54;80.34;99714.19;4203503;28;20038;-69
2023/08/02 03:29:54;;;;;;;;;;;;;;;16.53;80.34;99716.06;4203255;28;20023;-69
2023/08/02 03:31:58;;;;;;;;;;;;;;;16.52;80.32;99713.59;4202893;28;20018;-69
2023/08/02 03:34:00;;;;;;;;;;;;;;;16.51;80.46;99715.50;4202228;28;20389;-69
2023/08/02 03:36:07;;;;;;;;;;;;;;;16.50;80.67;99716.56;4201982;28;20023;-69
2023/08/02 03:38:09;;;;;;;;;;;;;;;16.49;80.88;99717.66;4203089;28;20358;-69
2023/08/02 03:40:11;;;;;;;;;;;;;;;16.48;81.10;99715.97;4204974;28;20059;-69
2023/08/02 03:42:13;;;;;;;;;;;;;;;16.46;81.08;99722.75;4205743;28;19931;-69
2023/08/02 03:44:15;;;;;;;;;;;;;;;16.46;81.08;99720.84;4206168;28;20085;-69
2023/08/02 03:46:24;;;;;;;;;;;;;;;16.45;81.19;99727.34;4205465;28;20612;-69
2023/08/02 03:48:36;;;;;;;;;;;;;;;16.44;81.26;99724.88;4204977;28;20368;-69
2023/08/02 03:50:43;;;;;;;;;;;;;;;16.43;81.56;99726.78;4205524;28;19964;-69
2023/08/02 03:52:48;;;;;;;;;;;;;;;16.44;81.34;99720.28;4205895;28;20039;-69
2023/08/02 03:54:50;;;;;;;;;;;;;;;16.46;81.25;99725.47;4205190;28;20441;-69
2023/08/02 03:56:52;;;;;;;;;;;;;;;16.45;81.60;99723.81;4205460;28;20011;-69
2023/08/02 03:58:54;;;;;;;;;;;;;;;16.44;81.51;99728.44;4206129;28;20023;-69
2023/08/02 04:00:56;;;;;;;;;;;;;;;16.45;81.42;99730.09;4205372;28;20026;-69
2023/08/02 04:03:03;;;;;;;;;;;;;;;16.45;81.36;99730.09;4204349;28;20027;-69
2023/08/02 04:05:08;;;;;;;;;;;;;;;16.45;81.77;99723.81;4205857;28;20023;-69
2023/08/02 04:07:13;;;;;;;;;;;;;;;16.44;81.85;99724.88;4204948;28;20011;-69
2023/08/02 04:09:15;;;;;;;;;;;;;;;16.43;81.93;99724.06;4205715;28;20026;-69
2023/08/02 04:11:17;;;;;;;;;;;;;;;16.44;81.73;99725.72;4205087;28;20032;-69
2023/08/02 04:13:19;;;;;;;;;;;;;;;16.44;81.58;99728.44;4205464;28;20035;-69
2023/08/02 04:15:21;;;;;;;;;;;;;;;16.42;81.68;99719.66;4205495;28;20022;-69
2023/08/02 04:17:25;;;;;;;;;;;;;;;16.45;81.51;99727.34;4185845;28;20015;-69
2023/08/02 04:19:27;;;;;;;;;;;;;;;16.46;81.65;99720.03;4205453;28;20055;-69
2023/08/02 04:21:31;;;;;;;;;;;;;;;16.48;81.67;99726.06;4205415;28;20031;-69
2023/08/02 04:23:33;;;;;;;;;;;;;;;16.50;81.37;99723.91;4205399;28;20473;-69
2023/08/02 04:25:35;;;;;;;;;;;;;;;16.48;81.58;99726.88;4203631;28;20006;-69
2023/08/02 04:27:39;;;;;;;;;;;;;;;16.49;81.89;99736.72;4204655;28;20011;-69
2023/08/02 04:29:40;;;;;;;;;;;;;;;16.46;81.91;99734.47;4204975;28;20358;-69
2023/08/02 04:31:46;;;;;;;;;;;;;;;16.46;81.85;99733.66;4205612;28;19929;-69
2023/08/02 04:33:49;;;;;;;;;;;;;;;16.48;81.69;99742.41;4204591;28;20019;-69
2023/08/02 04:35:54;;;;;;;;;;;;;;;16.45;82.01;99730.09;4203934;28;20035;-69
2023/08/02 04:38:02;;;;;;;;;;;;;;;16.44;81.88;99733.91;4204353;28;20027;-69
2023/08/02 04:40:04;;;;;;;;;;;;;;;16.45;81.98;99727.34;4204279;28;20461;-69
2023/08/02 04:42:06;;;;;;;;;;;;;;;16.46;81.69;99730.94;4204791;28;20027;-69
2023/08/02 04:44:09;;;;;;;;;;;;;;;16.45;81.90;99727.34;4185383;28;19958;-70
2023/08/02 04:46:11;;;;;;;;;;;;;;;16.45;82.03;99727.34;4203846;28;20007;-70
2023/08/02 04:48:24;;;;;;;;;;;;;;;16.45;82.11;99732.81;4204477;28;20196;-70
2023/08/02 04:50:26;;;;;;;;;;;;;;;16.44;82.20;99724.88;4204210;28;20047;-70
2023/08/02 04:52:28;;;;;;;;;;;;;;;16.45;82.11;99724.63;4186960;28;20015;-70
2023/08/02 04:54:32;;;;;;;;;;;;;;;16.44;82.07;99717.53;4204425;28;20062;-70
2023/08/02 04:56:41;;;;;;;;;;;;;;;16.45;81.92;99726.53;4204474;28;20027;-70
2023/08/02 04:58:47;;;;;;;;;;;;;;;16.43;82.47;99720.50;4203644;28;20394;-70
2023/08/02 05:00:51;;;;;;;;;;;;;;;16.44;82.28;99717.53;4200515;28;20023;-70
2023/08/02 05:03:03;;;;;;;;;;;;;;;16.45;82.18;99718.38;4203421;28;19924;-70
2023/08/02 05:05:05;;;;;;;;;;;;;;;16.45;82.18;99724.63;4204136;28;19931;-70
2023/08/02 05:07:07;;;;;;;;;;;;;;;16.43;82.30;99721.34;4204704;28;20019;-70
2023/08/02 05:09:11;;;;;;;;;;;;;;;16.45;81.86;99724.63;4203873;28;20604;-70
2023/08/02 05:11:16;;;;;;;;;;;;;;;16.46;81.85;99718.13;4204185;28;20011;-70
2023/08/02 05:13:18;;;;;;;;;;;;;;;16.50;81.80;99704.84;4204208;28;20018;-70
2023/08/02 05:15:20;;;;;;;;;;;;;;;16.51;81.73;99701.06;4204159;28;20464;-70
2023/08/02 05:17:24;;;;;;;;;;;;;;;16.49;81.90;99711.34;4204325;28;20027;-70
2023/08/02 05:19:26;;;;;;;;;;;;;;;16.49;81.90;99706.75;4203387;28;20019;-70
2023/08/02 05:21:33;;;;;;;;;;;;;;;16.49;82.05;99712.19;4203707;28;20736;-70
2023/08/02 05:23:41;;;;;;;;;;;;;;;16.49;82.23;99704.03;4204074;28;20023;-70
2023/08/02 05:25:48;;;;;;;;;;;;;;;16.48;82.35;99699.63;4202676;28;19931;-70
2023/08/02 05:27:52;;;;;;;;;;;;;;;16.50;82.03;99710.28;4203980;28;20022;-70
2023/08/02 05:29:56;;;;;;;;;;;;;;;16.50;82.11;99699.38;4202346;28;20007;-70
2023/08/02 05:31:58;;;;;;;;;;;;;;;16.50;82.30;99705.66;4204386;28;20361;-69
2023/08/02 05:34:00;;;;;;;;;;;;;;;16.51;82.53;99707.31;4203025;28;20035;-69
2023/08/02 05:36:05;;;;;;;;;;;;;;;16.52;82.38;99703.53;4204064;28;20011;-70
2023/08/02 05:38:10;;;;;;;;;;;;;;;16.52;82.47;99692.63;4204122;28;20039;-71
2023/08/02 05:40:21;;;;;;;;;;;;;;;16.52;82.57;99697.22;4203414;28;20683;-70
2023/08/02 05:42:26;;;;;;;;;;;;;;;16.53;82.59;99693.44;4202963;28;20003;-70
2023/08/02 05:44:36;;;;;;;;;;;;;;;16.54;82.20;99706.03;4204011;28;20011;-70
2023/08/02 05:46:38;;;;;;;;;;;;;;;16.56;82.29;99695.69;4202050;28;19970;-69
2023/08/02 05:48:40;;;;;;;;;;;;;;;16.59;82.03;99706.13;4201621;28;20524;-71
2023/08/02 05:50:47;;;;;;;;;;;;;;;16.62;82.13;99707.53;4202707;28;20023;-72
2023/08/02 05:52:52;;;;;;;;;;;;;;;16.64;81.80;99716.28;4203190;28;20039;-71
2023/08/02 05:54:54;;;;;;;;;;;;;;;16.66;82.06;99719.59;4202424;28;20015;-70
2023/08/02 05:56:54;;;;;;;;;;;;;;;16.68;81.85;99717.47;4203511;28;20365;-71
2023/08/02 05:58:58;;;;;;;;;;;;;;;16.69;81.94;99709.06;4203725;28;20007;-72
2023/08/02 06:01:02;;;;;;;;;;;;;;;16.72;81.86;99715.91;4203748;28;20027;-71
2023/08/02 06:03:04;;;;;;;;;;;;;;;16.74;81.75;99711.88;4201516;28;20023;-70
2023/08/02 06:05:12;;;;;;;;;;;;;;;16.76;81.70;99712.44;4203091;28;20019;-70
2023/08/02 06:07:13;;;;;;;;;;;;;;;16.79;81.26;99721.22;4201973;28;19932;-70
2023/08/02 06:09:17;;;;;;;;;;;;;;;16.81;81.42;99710.91;4202434;28;20004;-70
2023/08/02 06:11:19;;;;;;;;;;;;;;;16.83;81.13;99703.28;4201750;28;21566;-70
2023/08/02 06:13:21;;;;;;;;;;;;;;;16.83;81.29;99698.66;4202295;28;20364;-70
2023/08/02 06:15:24;;;;;;;;;;;;;;;16.85;81.14;99699.25;4202961;28;20028;-70
2023/08/02 06:17:33;;;;;;;;;;;;;;;16.86;80.89;99708.28;4203505;28;20449;-70
2023/08/02 06:19:35;;;;;;;;;;;;;;;16.87;81.02;99718.97;4203642;28;20015;-71
2023/08/02 06:21:37;;;;;;;;;;;;;;;16.88;80.84;99719.78;4203196;28;20007;-70
2023/08/02 06:23:39;;;;;;;;;;;;;;;16.91;80.76;99702.94;4203660;28;20027;-70
2023/08/02 06:25:44;;;;;;;;;;;;;;;16.93;80.50;99700.81;4202979;28;20043;-70
2023/08/02 06:27:48;;;;;;;;;;;;;;;16.95;80.39;99697.84;4204136;28;20417;-70
2023/08/02 06:29:50;;;;;;;;;;;;;;;16.95;80.13;99690.47;4202649;28;20031;-70
2023/08/02 06:31:52;;;;;;;;;;;;;;;16.98;80.07;99700.88;4203571;28;20011;-70
2023/08/02 06:33:55;;;;;;;;;;;;;;;17.02;80.22;99698.50;4202674;28;20445;-70
2023/08/02 06:36:06;;;;;;;;;;;;;;;17.04;79.93;99693.63;4203047;28;20007;-70
2023/08/02 06:38:09;;;;;;;;;;;;;;;17.07;79.71;99710.34;4202821;28;20015;-70
2023/08/02 06:40:12;;;;;;;;;;;;;;;17.10;79.68;99698.94;4203265;28;20366;-70
2023/08/02 06:42:14;;;;;;;;;;;;;;;17.12;79.58;99687.78;4203020;28;20018;-70
2023/08/02 06:44:16;;;;;;;;;;;;;;;17.17;79.96;99693.31;4203215;28;20196;-70
2023/08/02 06:46:18;;;;;;;;;;;;;;;17.19;79.54;99685.69;4201654;28;20011;-70
2023/08/02 06:48:23;;;;;;;;;;;;;;;17.23;79.39;99696.97;4202286;28;20420;-70
2023/08/02 06:50:30;;;;;;;;;;;;;;;17.27;78.92;99695.38;4202670;28;20023;-70
2023/08/02 06:52:32;;;;;;;;;;;;;;;17.29;78.77;99695.97;4202704;28;20022;-70
2023/08/02 06:54:37;;;;;;;;;;;;;;;17.31;78.59;99688.38;4203304;28;20019;-70
2023/08/02 06:56:39;;;;;;;;;;;;;;;17.35;78.60;99677.78;4202776;28;20004;-70
2023/08/02 06:58:42;;;;;;;;;;;;;;;17.38;78.44;99682.75;4203775;28;20019;-70
2023/08/02 07:00:44;;;;;;;;;;;;;;;17.41;78.20;99683.09;4203035;28;20011;-70
2023/08/02 07:02:46;;;;;;;;;;;;;;;17.45;78.01;99675.22;4202708;28;20007;-70
2023/08/02 07:04:50;;;;;;;;;;;;;;;17.48;77.99;99672.00;4202516;28;20444;-70
2023/08/02 07:06:53;;;;;;;;;;;;;;;17.50;77.86;99672.56;4202750;28;20015;-70
2023/08/02 07:08:56;;;;;;;;;;;;;;;17.53;77.82;99669.34;4203545;28;19931;-70
2023/08/02 07:10:58;;;;;;;;;;;;;;;17.56;77.74;99676.22;4202355;28;20361;-70
2023/08/02 07:13:00;;;;;;;;;;;;;;;17.59;77.33;99673.00;4202244;28;20362;-70
2023/08/02 07:15:05;;;;;;;;;;;;;;;17.61;77.07;99655.25;4205070;28;20031;-70
2023/08/02 07:17:07;;;;;;;;;;;;;;;17.64;76.63;99654.75;4206299;28;20049;-70
2023/08/02 07:19:10;;;;;;;;;;;;;;;17.67;76.81;99656.19;4205737;28;20027;-70
2023/08/02 07:21:13;;;;;;;;;;;;;;;17.70;76.62;99652.13;4206227;28;20019;-70
2023/08/02 07:23:17;;;;;;;;;;;;;;;17.73;76.29;99646.16;4206015;28;20015;-70
2023/08/02 07:25:19;;;;;;;;;;;;;;;17.76;76.27;99651.94;4206009;28;20020;-71
2023/08/02 07:27:21;;;;;;;;;;;;;;;17.79;76.14;99647.88;4188271;28;20024;-71
2023/08/02 07:29:23;;;;;;;;;;;;;;;17.82;76.07;99650.94;4205577;28;19955;-71
2023/08/02 07:31:27;;;;;;;;;;;;;;;17.86;75.71;99650.44;4205907;28;19962;-71
2023/08/02 07:33:41;;;;;;;;;;;;;;;17.89;75.71;99658.97;4205622;28;20378;-71
2023/08/02 07:35:46;;;;;;;;;;;;;;;17.93;75.13;99640.16;4203947;28;20427;-71
2023/08/02 07:37:50;;;;;;;;;;;;;;;17.95;75.18;99640.75;4204683;28;20020;-71
2023/08/02 07:39:55;;;;;;;;;;;;;;;17.98;75.04;99643.81;4205696;28;20022;-71
2023/08/02 07:41:57;;;;;;;;;;;;;;;18.02;75.04;99633.19;4205663;28;20453;-71
2023/08/02 07:43:59;;;;;;;;;;;;;;;18.04;74.78;99633.78;4204740;28;20023;-70
2023/08/02 07:46:01;;;;;;;;;;;;;;;18.07;74.45;99635.16;4205177;28;20018;-71
2023/08/02 07:48:03;;;;;;;;;;;;;;;18.10;74.29;99634.66;4206008;28;20022;-71
2023/08/02 07:50:05;;;;;;;;;;;;;;;18.12;74.26;99638.81;4204315;28;19925;-71
2023/08/02 07:52:07;;;;;;;;;;;;;;;18.15;74.38;99631.97;4202436;28;20031;-71
2023/08/02 07:54:09;;;;;;;;;;;;;;;18.18;74.12;99636.94;4202062;28;20050;-70
2023/08/02 07:56:12;;;;;;;;;;;;;;;18.21;74.16;99625.50;4202877;28;20023;-70
2023/08/02 07:58:14;;;;;;;;;;;;;;;18.25;73.84;99634.03;4202858;28;20055;-70
2023/08/02 08:00:17;;;;;;;;;;;;;;;18.27;73.83;99635.41;4202614;28;20365;-70
2023/08/02 08:02:19;;;;;;;;;;;;;;;18.29;73.44;99629.69;4203799;28;20019;-71
2023/08/02 08:04:21;;;;;;;;;;;;;;;18.31;73.04;99622.91;4204479;28;20364;-71
2023/08/02 08:06:23;;;;;;;;;;;;;;;18.33;72.92;99631.66;4204369;28;20012;-71
2023/08/02 08:08:25;;;;;;;;;;;;;;;18.35;72.42;99637.72;4204965;28;20455;-71
2023/08/02 08:10:27;;;;;;;;;;;;;;;18.37;72.52;99634.72;4187086;28;19976;-71
2023/08/02 08:12:30;;;;;;;;;;;;;;;18.37;72.30;99638.28;4205350;28;20024;-71
2023/08/02 08:14:32;;;;;;;;;;;;;;;18.40;71.93;99630.63;4204493;28;20339;-71
2023/08/02 08:16:34;;;;;;;;;;;;;;;18.41;71.77;99632.31;4205211;28;20015;-71
2023/08/02 08:18:35;;;;;;;;;;;;;;;18.43;71.93;99632.88;4205493;28;20020;-71
2023/08/02 08:20:37;;;;;;;;;;;;;;;18.44;71.91;99631.78;4204993;28;20024;-71
2023/08/02 08:22:39;;;;;;;;;;;;;;;18.49;71.83;99631.84;4204542;28;20022;-71
2023/08/02 08:24:40;;;;;;;;;;;;;;;18.49;71.72;99635.38;4204513;28;20035;-71
2023/08/02 08:26:41;;;;;;;;;;;;;;;18.51;71.23;99632.41;4204449;28;19974;-71
2023/08/02 08:28:45;;;;;;;;;;;;;;;18.52;71.11;99623.13;4204660;28;20011;-71
2023/08/02 08:30:47;;;;;;;;;;;;;;;18.53;71.06;99636.53;4204199;28;20487;-71
2023/08/02 08:32:49;;;;;;;;;;;;;;;18.54;71.12;99621.81;4205854;28;20505;-70
2023/08/02 08:34:51;;;;;;;;;;;;;;;18.58;70.88;99616.63;4204871;28;20033;-71
2023/08/02 08:36:53;;;;;;;;;;;;;;;18.59;70.84;99612.81;4204850;28;20392;-71
2023/08/02 08:38:55;;;;;;;;;;;;;;;18.61;70.46;99609.84;4205058;28;20026;-71
2023/08/02 08:40:57;;;;;;;;;;;;;;;18.63;70.61;99622.16;4204582;28;20023;-71
2023/08/02 08:43:00;;;;;;;;;;;;;;;18.65;70.48;99602.75;4205237;28;20015;-71
2023/08/02 08:45:03;;;;;;;;;;;;;;;18.68;70.46;99604.97;4169927;28;20034;-71
2023/08/02 08:47:06;;;;;;;;;;;;;;;18.70;70.36;99591.88;4204355;28;20018;-71
2023/08/02 08:49:08;;;;;;;;;;;;;;;18.72;70.36;99601.47;4204005;28;20019;-71
2023/08/02 08:51:11;;;;;;;;;;;;;;;18.74;70.18;99582.06;4204241;28;19924;-71
2023/08/02 08:53:17;;;;;;;;;;;;;;;18.76;70.05;99587.25;4204331;28;20011;-71
2023/08/02 08:55:19;;;;;;;;;;;;;;;18.78;69.93;99583.19;4204867;28;20027;-71
2023/08/02 08:57:21;;;;;;;;;;;;;;;18.80;69.07;99588.41;4205243;28;20356;-71
2023/08/02 08:59:23;;;;;;;;;;;;;;;18.82;69.02;99573.38;4204225;28;20366;-71
2023/08/02 09:01:26;;;;;;;;;;;;;;;18.84;68.89;99573.97;4203454;28;20015;-71
2023/08/02 09:03:28;;;;;;;;;;;;;;;18.85;68.71;99570.13;4204523;28;20342;-71
2023/08/02 09:05:30;;;;;;;;;;;;;;;18.88;68.70;99579.75;4204653;28;20022;-71
2023/08/02 09:07:32;;;;;;;;;;;;;;;18.92;68.82;99575.41;4204251;28;20015;-71
2023/08/02 09:09:35;;;;;;;;;;;;;;;18.94;68.71;99573.22;4203492;28;20032;-71
2023/08/02 09:11:37;;;;;;;;;;;;;;;18.97;68.50;99567.25;4185920;28;19955;-71
2023/08/02 09:13:39;;;;;;;;;;;;;;;18.99;68.48;99576.00;4204407;28;20062;-71
2023/08/02 09:15:41;;;;;;;;;;;;;;;19.02;68.34;99567.28;4204287;28;20391;-71
2023/08/02 09:17:47;;;;;;;;;;;;;;;19.04;68.01;99561.53;4203872;28;20023;-71
2023/08/02 09:19:49;;;;;;;;;;;;;;;19.06;67.92;99560.19;4204462;28;20018;-71
2023/08/02 09:22:04;;;;;;;;;;;;;;;19.09;67.92;99553.38;4204128;28;20360;-70
2023/08/02 09:24:06;;;;;;;;;;;;;;;19.12;67.65;99565.72;4203857;28;20011;-71
2023/08/02 09:26:12;;;;;;;;;;;;;;;19.13;67.68;99561.91;4204035;28;20026;-71
2023/08/02 09:28:14;;;;;;;;;;;;;;;19.15;67.47;99554.22;4203363;28;20023;-71
2023/08/02 09:30:23;;;;;;;;;;;;;;;19.16;67.58;99553.16;4203941;28;20027;-71
2023/08/02 09:32:25;;;;;;;;;;;;;;;19.16;67.36;99558.63;4203455;28;20462;-71
2023/08/02 09:34:28;;;;;;;;;;;;;;;19.19;67.26;99560.84;4203696;28;20107;-71
2023/08/02 09:36:31;;;;;;;;;;;;;;;19.15;67.28;99546.03;4203644;28;20099;-71
2023/08/02 09:38:33;;;;;;;;;;;;;;;19.20;67.36;99541.41;4203932;28;20340;-70
2023/08/02 09:40:36;;;;;;;;;;;;;;;19.22;67.16;99552.09;4204057;28;20011;-71
2023/08/02 09:42:38;;;;;;;;;;;;;;;19.22;67.20;99544.72;4203924;28;20026;-70
2023/08/02 09:44:40;;;;;;;;;;;;;;;19.25;67.06;99549.66;4204293;28;20644;-71
2023/08/02 09:46:42;;;;;;;;;;;;;;;19.25;67.03;99535.97;4203130;28;20031;-70
2023/08/02 09:48:44;;;;;;;;;;;;;;;19.28;66.88;99540.09;4204114;28;20015;-71
2023/08/02 09:50:54;;;;;;;;;;;;;;;19.30;66.94;99542.59;4203499;28;20006;-71
2023/08/02 09:52:56;;;;;;;;;;;;;;;19.31;66.81;99533.25;4203408;28;20015;-71
2023/08/02 09:54:58;;;;;;;;;;;;;;;19.32;66.77;99529.44;4203531;28;20022;-70
2023/08/02 09:57:01;;;;;;;;;;;;;;;19.33;66.67;99520.16;4203321;28;20019;-70
2023/08/02 09:59:03;;;;;;;;;;;;;;;19.34;66.55;99522.63;4203561;28;20359;-71
2023/08/02 10:01:05;;;;;;;;;;;;;;;19.36;66.31;99514.97;4202754;28;20385;-71
2023/08/02 10:03:08;;;;;;;;;;;;;;;19.39;66.43;99514.44;4183817;28;20019;-71
2023/08/02 10:05:12;;;;;;;;;;;;;;;19.41;66.52;99522.38;4203185;28;20035;-70
2023/08/02 10:07:16;;;;;;;;;;;;;;;19.42;66.38;99513.09;4203108;28;20031;-70
2023/08/02 10:09:18;;;;;;;;;;;;;;;19.45;66.57;99521.59;4203446;28;20019;-70
2023/08/02 10:11:21;;;;;;;;;;;;;;;19.49;66.25;99537.50;4203126;28;20396;-70
2023/08/02 10:13:24;;;;;;;;;;;;;;;19.50;66.31;99523.53;4203811;28;19932;-70
2023/08/02 10:15:25;;;;;;;;;;;;;;;19.51;66.35;99518.88;4203472;28;20031;-71
2023/08/02 10:17:27;;;;;;;;;;;;;;;19.53;66.26;99502.97;4203056;28;20022;-71
2023/08/02 10:19:29;;;;;;;;;;;;;;;19.54;66.37;99499.16;4203964;28;19928;-71
2023/08/02 10:21:30;;;;;;;;;;;;;;;19.55;66.53;99492.63;4203450;28;20016;-71
2023/08/02 10:23:34;;;;;;;;;;;;;;;19.56;66.24;99500.56;4203166;28;20044;-71
2023/08/02 10:25:35;;;;;;;;;;;;;;;19.56;66.64;99508.78;4202711;28;20031;-71
2023/08/02 10:27:37;;;;;;;;;;;;;;;19.59;66.54;99499.19;4203540;28;20023;-70
2023/08/02 10:29:39;;;;;;;;;;;;;;;19.62;66.42;99493.16;4203016;28;20011;-70
2023/08/02 10:31:41;;;;;;;;;;;;;;;19.63;66.38;99495.66;4203515;28;20368;-70
2023/08/02 10:33:43;;;;;;;;;;;;;;;19.65;66.38;99498.13;4202304;28;19924;-71
2023/08/02 10:36:03;;;;;;;;;;;;;;;19.67;66.22;99503.31;4168675;28;19959;-71
2023/08/02 10:38:05;;;;;;;;;;;;;;;19.68;66.20;99499.50;4203255;28;20182;-71
2023/08/02 10:40:08;;;;;;;;;;;;;;;19.70;66.30;99497.31;4201784;28;20015;-71
2023/08/02 10:42:09;;;;;;;;;;;;;;;19.72;66.33;99495.16;4202931;28;20026;-71
2023/08/02 10:44:14;;;;;;;;;;;;;;;19.73;66.43;99489.41;4203652;28;20453;-71
2023/08/02 10:46:15;;;;;;;;;;;;;;;19.75;66.39;99486.41;4203360;28;20011;-71
2023/08/02 10:48:25;;;;;;;;;;;;;;;19.76;66.23;99477.91;4203145;28;20019;-70
2023/08/02 10:50:43;;;;;;;;;;;;;;;19.79;66.14;99473.81;4206124;28;19924;-71